x

Central Aleutians 230nm Sw Dutch Harbor (46072) Wave Buoy

7:50 - Sun 23rd Nov 2014 All times are UTC.

  • Sig Wave height 12.5ft
  • Peak Period 11s
  • Average Period 7s
  • Wind
    25mph, 31mph gusts
  • Sea Temp 44°f
  • Ar Temp 41°f
  • Sea Pressure 997.4mb

More Historic Weather Station data

Upgrade to MSW Pro to gain access to the past 30 days of data for over 8000 Wavebouys and Weather Stations around the globe.

Join Pro

Comparision Forecast

View Surf forecast
   
Dom 11/23 7:50 12.5ft 11s 7s 25 31 mph 997.4mb 44f 41f
6:50 11.5ft 10s 7s 25 31 mph 997mb 44f 40f
5:50 11.5ft 10s 7s 27 36 mph 996.4mb 44f 40f
4:50 12ft 11s 7s 27 31 mph 995.8mb 44f 41f
3:50 12ft 11s 7s 27 34 mph 995.2mb 44f 41f
2:50 11.5ft 11s 7s 29 38 mph 994.3mb 44f 41f
1:50 11ft 10s 6s 27 34 mph 993.7mb 44f 42f
12:50 11ft 11s 6s 34 40 mph 993.1mb 44f 40f
Sáb 11/22 11:50 11ft 10s 6s 27 34 mph 992.6mb 44f 42f
10:50 11ft 11s 6s 27 34 mph 992.5mb 44f 42f
9:50 11.5ft 10s 7s 27 31 mph 992.2mb 44f 42f
8:50 12.5ft 9s 7s 27 34 mph 991.4mb 44f 42f
7:50 12.5ft 11s 7s 25 31 mph 990.5mb 44f 42f
6:50 11ft 11s 7s 25 29 mph 989.6mb 44f 42f
5:50 12.5ft 11s 8s 25 29 mph 988.7mb 44f 42f
4:50 11ft 10s 7s 22 29 mph 987.8mb 44f 42f
3:50 9.5ft 10s 7s 22 29 mph 987mb 44f 42f
2:50 10ft 11s 7s 25 29 mph 986.3mb 44f 43f
1:50 11ft 10s 7s 22 27 mph 985.6mb 44f 43f
12:50 12ft 10s 7s 27 31 mph 984.8mb 44f 42f
11:50 11.5ft 10s 7s 25 31 mph 984.6mb 44f 42f
10:50 12ft 7s 7s 25 29 mph 984.2mb 44f 42f
9:50 11ft 9s 7s 22 27 mph 984mb 44f 42f
8:50 12ft 9s 7s 25 29 mph 983.6mb 44f 41f
7:50 12ft 7s 7s 25 31 mph 983.1mb 44f 42f
6:50 13ft 9s 7s 25 29 mph 982.7mb 44f 42f
5:50 12ft 8s 7s 25 31 mph 982.6mb 44f 42f
4:50 11ft 8s 7s 25 31 mph 982.4mb 44f 41f
3:50 11ft 7s 7s 27 34 mph 982.2mb 44f 41f
2:50 10ft 7s 6s 25 34 mph 982.1mb 44f 41f
1:50 10ft 11s 6s 31 36 mph 981.6mb 44f 41f
12:50 8.5ft 11s 6s 27 31 mph 981.6mb 44f 40f
Sex 11/21 11:50 9ft 11s 6s 25 29 mph 981.5mb 44f 40f
10:50 8.5ft 11s 6s 20 27 mph 981.7mb 44f 41f
9:50 9ft 11s 6s 25 29 mph 981.7mb 44f 42f
8:50 9ft 11s 7s 18 25 mph 981.5mb 44f 42f
7:50 8.5ft 9s 7s 18 22 mph 981.2mb 44f 41f
6:50 10ft 11s 7s 20 25 mph 980.8mb 44f 41f
5:50 9.5ft 11s 8s 16 20 mph 980.5mb 44f 41f
4:50 9ft 11s 8s 16 20 mph 980.2mb 44f 41f
3:50 8ft 11s 8s 16 18 mph 980.1mb 44f 42f
2:50 9.5ft 11s 8s 11 16 mph 980.1mb 44f 41f
1:50 9ft 11s 8s 11 16 mph 980.1mb 44f 41f
12:50 10ft 11s 8s 11 16 mph 979.6mb 44f 41f
11:50 10.5ft 11s 8s 11 18 mph 979.5mb 44f 41f
10:50 11ft 11s 8s 11 20 mph 979.1mb 44f 41f
9:50 11.5ft 11s 8s 9 11 mph 978.9mb 44f 40f
8:50 11.5ft 11s 9s 9 13 mph 978.4mb 44f 41f
7:50 11ft 11s 8s 11 16 mph 978.1mb 44f 40f
6:50 11.5ft 11s 9s  -  4 mph 978mb 44f 40f
5:50 9.5ft 11s 8s 4 7 mph 977.8mb 44f 40f
4:50 9ft 10s 8s 4 7 mph 977.5mb 44f 40f
3:50 10ft 11s 9s 7 9 mph 977.3mb 44f 40f
2:50 8.5ft 10s 8s 4 7 mph 977mb 44f 40f
1:50 9ft 11s 8s 4 11 mph 976.8mb 44f 40f
12:50 9.5ft 10s 8s 9 11 mph 976.6mb 44f 42f
Qui 11/20 11:50 8ft 8s 8s 9 11 mph 976.7mb 44f 42f
10:50 9ft 10s 8s 9 11 mph 976.7mb 44f 41f
9:50 9ft 10s 7s 9 11 mph 976.9mb 44f 42f
8:50 8ft 10s 7s 7 11 mph 976.7mb 44f 41f
7:50 9ft 10s 7s 7 11 mph 976.3mb 44f 40f
6:50 8ft 9s 7s 7 9 mph 975.9mb 44f 39f
5:50 9ft 10s 7s 11 16 mph 975.6mb 44f 39f
4:50 8ft 10s 7s 9 11 mph 975.3mb 44f 40f
3:50 8ft 9s 7s 9 13 mph 975.3mb 44f 40f
2:50 8ft 10s 7s 16 18 mph 975.2mb 44f 40f
1:50 8ft 10s 7s 11 16 mph 975.2mb 44f 42f
12:50 8.5ft 11s 7s 13 18 mph 975mb 44f 42f
11:50 9ft 11s 7s 13 18 mph 974.9mb 44f 42f
10:50 9.5ft 10s 7s 16 20 mph 974.9mb 44f 42f
9:50 10ft 11s 7s 16 18 mph 974.7mb 44f 42f
8:50 10ft 10s 7s 16 20 mph 974.6mb 44f 42f
7:50 13ft 10s 8s 16 20 mph 974.5mb 44f 42f
6:50 12ft 11s 7s 16 20 mph 974.5mb 44f 42f
5:50 13.5ft 11s 8s 13 20 mph 974.3mb 44f 42f
4:50 11ft 11s 7s 16 20 mph 974.2mb 44f 42f
3:50 14.5ft 11s 8s 18 22 mph 974mb 44f 42f
2:50 13ft 11s 8s 16 22 mph 973.9mb 44f 41f
1:50 13ft 11s 8s 20 25 mph 974.1mb 44f 38f
12:50 14ft 11s 8s 25 29 mph 974mb 44f 39f
Qua 11/19 11:50 15ft 11s 8s 22 29 mph 973.9mb 44f 40f
10:50 15.5ft 11s 8s 25 31 mph 974.2mb 44f 42f
9:50 14.5ft 11s 8s 27 34 mph 974.4mb 44f 41f
8:50 15ft 10s 8s 29 36 mph 974.4mb 44f 40f
7:50 15ft 11s 8s 29 36 mph 974.2mb 44f 41f
6:50 15ft 11s 8s 29 36 mph 974mb 44f 41f
5:50 15.5ft 11s 8s 27 31 mph 974.1mb 44f 42f
4:50 16ft 11s 8s 27 36 mph 974.3mb 44f 42f
3:50 16ft 11s 8s 25 29 mph 974.8mb 44f 42f
2:50 16ft 11s 8s 22 27 mph 975mb 44f 42f
1:50 14.5ft 12s 8s 22 27 mph 975.4mb 44f 43f
12:50 15ft 11s 8s 22 27 mph 975.9mb 44f 43f
11:50 16.5ft 11s 9s 22 27 mph 976.1mb 44f 43f
10:50 13ft 11s 8s 18 22 mph 976.5mb 44f 43f
9:50 15ft 11s 8s 20 27 mph 976.5mb 44f 43f
8:50 14.5ft 12s 8s 20 25 mph 976.4mb 44f 43f